Time;durP1;ratioP1;P1;durP2;ratioP2;P2;SDS_P1;SDS_P2;PMS_P1;PMS_P2;Temp;Humidity;BMP_temperature;BMP_pressure;BME280_temperature;BME280_humidity;BME280_pressure;Samples;Min_cycle;Max_cycle;Signal;HPM_P1;HPM_P2
2023/08/12 05:23:11;;;;;;;;;;;;;;;9.80;100.00;99765.16;5457149;23;19951;-88
2023/08/12 05:25:40;;;;;;;;;;;;;;;9.86;100.00;99759.63;5018284;28;20004;-91
2023/08/12 05:28:08;;;;;;;;;;;;;;;9.84;100.00;99755.31;5018329;28;19956;-91
2023/08/12 05:30:36;;;;;;;;;;;;;;;9.84;100.00;99745.56;5034977;28;20015;-91
2023/08/12 05:33:02;;;;;;;;;;;;;;;9.91;100.00;99756.81;5034019;28;20044;-91
2023/08/12 05:35:27;;;;;;;;;;;;;;;9.90;100.00;99755.06;5034932;28;20043;-90
2023/08/12 05:37:55;;;;;;;;;;;;;;;9.87;100.00;99766.63;5015841;28;19924;-91
2023/08/12 05:40:20;;;;;;;;;;;;;;;9.90;100.00;99776.25;5034796;28;20292;-91
2023/08/12 05:42:46;;;;;;;;;;;;;;;9.86;100.00;99769.34;5016954;28;19917;-91
2023/08/12 05:45:11;;;;;;;;;;;;;;;9.84;100.00;99787.06;5016902;28;19924;-91
2023/08/12 05:47:36;;;;;;;;;;;;;;;9.85;100.00;99792.31;5034541;28;19917;-90
2023/08/12 05:50:06;;;;;;;;;;;;;;;9.88;100.00;99788.69;5016899;28;19921;-91
2023/08/12 05:52:32;;;;;;;;;;;;;;;9.90;100.00;99792.13;5014795;28;19952;-90
2023/08/12 05:54:57;;;;;;;;;;;;;;;9.91;100.00;99792.06;5016702;28;19952;-91
2023/08/12 05:57:23;;;;;;;;;;;;;;;9.85;100.00;99787.00;5016795;28;19921;-90
2023/08/12 05:59:48;;;;;;;;;;;;;;;9.90;100.00;99781.53;5016657;28;19968;-91
2023/08/12 06:02:14;;;;;;;;;;;;;;;9.94;100.00;99778.72;5016486;28;19971;-89
2023/08/12 06:04:39;;;;;;;;;;;;;;;10.04;100.00;99789.78;5016486;28;19917;-89
2023/08/12 06:07:04;;;;;;;;;;;;;;;10.30;100.00;99782.53;5015241;28;19971;-88
2023/08/12 06:09:29;;;;;;;;;;;;;;;10.20;100.00;99790.00;5034060;28;20324;-88
2023/08/12 06:11:55;;;;;;;;;;;;;;;10.15;100.00;99794.66;5033213;28;19918;-90
2023/08/12 06:14:20;;;;;;;;;;;;;;;10.09;100.00;99789.59;5033751;28;20352;-89
2023/08/12 06:16:45;;;;;;;;;;;;;;;9.99;100.00;99789.97;5034108;28;19927;-87
2023/08/12 06:19:11;;;;;;;;;;;;;;;10.04;100.00;99784.47;5016155;28;19921;-89
2023/08/12 06:21:36;;;;;;;;;;;;;;;9.99;100.00;99784.66;5015397;28;19928;-90
2023/08/12 06:24:01;;;;;;;;;;;;;;;10.04;100.00;99775.69;5034800;28;19928;-89
2023/08/12 06:26:26;;;;;;;;;;;;;;;10.03;100.00;99787.19;5035395;28;20364;-92
2023/08/12 06:28:52;;;;;;;;;;;;;;;9.97;100.00;99798.88;5017680;28;20431;-89
2023/08/12 06:31:17;;;;;;;;;;;;;;;10.04;100.00;99795.06;5016988;28;19921;-92
2023/08/12 06:33:42;;;;;;;;;;;;;;;10.02;100.00;99796.94;5034399;28;20008;-90
2023/08/12 06:36:08;;;;;;;;;;;;;;;10.02;100.00;99798.69;5033886;28;20284;-89
2023/08/12 06:38:33;;;;;;;;;;;;;;;9.99;100.00;99803.19;5032652;28;19917;-90
2023/08/12 06:40:58;;;;;;;;;;;;;;;10.03;100.00;99805.72;5033857;28;20280;-90
2023/08/12 06:43:23;;;;;;;;;;;;;;;9.98;100.00;99813.84;5016134;28;19923;-93
2023/08/12 06:45:48;;;;;;;;;;;;;;;9.99;100.00;99823.53;5034014;28;19917;-94
2023/08/12 06:48:14;;;;;;;;;;;;;;;9.99;100.00;99816.44;5017330;28;20402;-88
2023/08/12 06:50:39;;;;;;;;;;;;;;;9.99;100.00;99803.19;5034352;28;20273;-90
2023/08/12 06:53:04;;;;;;;;;;;;;;;10.04;100.00;99781.00;5032394;28;19917;-93
2023/08/12 06:55:29;;;;;;;;;;;;;;;10.08;100.00;99774.63;5033699;28;19924;-89
2023/08/12 06:57:55;;;;;;;;;;;;;;;10.35;100.00;99770.00;5016162;28;19917;-91
2023/08/12 07:23:36;;;;;;;;;;;;;;;10.20;100.00;99775.94;5443111;23;19936;-90
2023/08/12 07:26:01;;;;;;;;;;;;;;;10.22;100.00;99780.22;5015675;28;19921;-93
2023/08/12 07:28:31;;;;;;;;;;;;;;;10.23;100.00;99767.81;5034513;28;19917;-86
2023/08/12 07:30:56;;;;;;;;;;;;;;;10.18;100.00;99760.94;5018373;28;19928;-92
2023/08/12 07:33:21;;;;;;;;;;;;;;;10.16;100.00;99762.81;5013376;28;19925;-88
2023/08/12 07:35:47;;;;;;;;;;;;;;;10.21;100.00;99767.91;5033940;28;19917;-88
2023/08/12 07:38:12;;;;;;;;;;;;;;;10.15;100.00;99765.53;5037550;28;19917;-87
2023/08/12 07:40:37;;;;;;;;;;;;;;;10.22;100.00;99766.97;5020032;28;19972;-89
2023/08/12 07:43:03;;;;;;;;;;;;;;;10.19;100.00;99764.44;5016589;28;19917;-87
2023/08/12 07:45:28;;;;;;;;;;;;;;;10.13;100.00;99762.06;5033485;28;19917;-87
2023/08/12 07:47:54;;;;;;;;;;;;;;;10.25;100.00;99761.56;5033227;28;20368;-87
2023/08/12 07:50:19;;;;;;;;;;;;;;;10.20;100.00;99771.47;5015522;28;19936;-89
2023/08/12 07:52:45;;;;;;;;;;;;;;;10.15;100.00;99771.66;5015165;28;20011;-89
2023/08/12 07:55:10;;;;;;;;;;;;;;;10.25;100.00;99766.84;5033893;28;20360;-88
2023/08/12 07:57:35;;;;;;;;;;;;;;;10.23;100.00;99768.72;5017624;28;19996;-91
2023/08/12 08:00:01;;;;;;;;;;;;;;;10.25;100.00;99768.66;5018416;28;19917;-88
2023/08/12 08:02:26;;;;;;;;;;;;;;;10.25;100.00;99771.28;5016363;28;19921;-89
2023/08/12 08:04:51;;;;;;;;;;;;;;;10.28;100.00;99776.47;5016960;28;20331;-93
2023/08/12 08:07:17;;;;;;;;;;;;;;;10.26;100.00;99779.19;5033418;28;20352;-90
2023/08/12 08:09:43;;;;;;;;;;;;;;;10.29;100.00;99767.56;5034604;28;20028;-94
2023/08/12 08:12:09;;;;;;;;;;;;;;;10.24;100.00;99759.81;5015985;28;19917;-89
2023/08/12 08:14:34;;;;;;;;;;;;;;;10.15;100.00;99758.44;5035847;28;19925;-90
2023/08/12 08:16:59;;;;;;;;;;;;;;;10.25;100.00;99753.59;5035789;28;20275;-89
2023/08/12 08:19:24;;;;;;;;;;;;;;;10.19;100.00;99753.84;5016851;28;19917;-95
2023/08/12 08:21:51;;;;;;;;;;;;;;;10.19;100.00;99761.81;5036039;28;19924;-95
2023/08/12 08:24:16;;;;;;;;;;;;;;;10.20;100.00;99766.19;5036703;28;19925;-91
2023/08/12 08:26:41;;;;;;;;;;;;;;;10.21;100.00;99781.16;5018390;28;20344;-94
2023/08/12 08:29:09;;;;;;;;;;;;;;;10.14;100.00;99785.81;5015336;28;19917;-94
2023/08/12 08:32:03;;;;;;;;;;;;;;;10.15;100.00;99787.56;5032610;28;19928;-92
2023/08/12 08:34:29;;;;;;;;;;;;;;;10.17;100.00;99787.50;5020331;28;19924;-89
2023/08/12 08:36:54;;;;;;;;;;;;;;;10.13;100.00;99807.06;5036437;28;19924;-92
2023/08/12 08:39:19;;;;;;;;;;;;;;;10.21;100.00;99806.75;5018839;28;19921;-93
2023/08/12 08:41:47;;;;;;;;;;;;;;;10.15;100.00;99803.44;5021938;28;19964;-94
2023/08/12 08:44:14;;;;;;;;;;;;;;;10.16;100.00;99802.53;5037136;28;19971;-93
2023/08/12 08:46:41;;;;;;;;;;;;;;;10.20;100.00;99811.19;5018581;28;19964;-93
2023/08/12 08:49:06;;;;;;;;;;;;;;;10.23;100.00;99807.53;5018876;28;20504;-88
2023/08/12 08:51:32;;;;;;;;;;;;;;;10.24;100.00;99804.84;5036992;28;20019;-92
2023/08/12 08:53:58;;;;;;;;;;;;;;;10.19;100.00;99806.81;5018283;28;19920;-89
2023/08/12 08:56:24;;;;;;;;;;;;;;;10.23;100.00;99805.78;5036903;28;19924;-90
2023/08/12 08:58:49;;;;;;;;;;;;;;;10.30;100.00;99809.88;5036022;28;19932;-88
2023/08/12 09:01:17;;;;;;;;;;;;;;;10.33;100.00;99814.22;5035138;28;19932;-87
2023/08/12 09:03:43;;;;;;;;;;;;;;;10.30;100.00;99811.69;5017926;28;19917;-89
2023/08/12 09:06:09;;;;;;;;;;;;;;;10.29;100.00;99817.88;5036026;28;19972;-89
2023/08/12 09:08:35;;;;;;;;;;;;;;;10.38;100.00;99814.91;5035504;28;20434;-90
2023/08/12 09:11:01;;;;;;;;;;;;;;;10.35;100.00;99805.31;5036028;28;20384;-88
2023/08/12 09:13:27;;;;;;;;;;;;;;;10.32;100.00;99797.50;5017124;28;19921;-88
2023/08/12 09:15:52;;;;;;;;;;;;;;;10.36;100.00;99814.97;5036303;28;19925;-92
2023/08/12 09:18:18;;;;;;;;;;;;;;;10.35;100.00;99826.50;5020617;28;19928;-89
2023/08/12 09:20:43;;;;;;;;;;;;;;;10.38;100.00;99822.84;5038266;28;19921;-90
2023/08/12 09:23:10;;;;;;;;;;;;;;;10.39;100.00;99834.28;5022705;28;20019;-94
2023/08/12 09:25:46;;;;;;;;;;;;;;;10.38;100.00;99836.09;5045942;28;19917;-91
2023/08/12 09:28:12;;;;;;;;;;;;;;;10.37;100.00;99844.97;5038340;28;19917;-91
2023/08/12 09:30:37;;;;;;;;;;;;;;;10.35;100.00;99837.09;5026274;28;19948;-91
2023/08/12 09:33:07;;;;;;;;;;;;;;;10.34;100.00;99853.91;5035688;28;19924;-92
2023/08/12 09:35:33;;;;;;;;;;;;;;;10.36;100.00;99854.69;5017941;28;19921;-91
2023/08/12 09:37:59;;;;;;;;;;;;;;;10.39;100.00;99860.78;5025133;28;20277;-94
2023/08/12 09:40:24;;;;;;;;;;;;;;;10.34;100.00;99858.34;5017848;28;19924;-92
2023/08/12 09:42:50;;;;;;;;;;;;;;;10.40;100.00;99857.22;5017730;28;19960;-92
2023/08/12 09:45:15;;;;;;;;;;;;;;;10.34;100.00;99845.94;5034903;28;19917;-92
2023/08/12 09:47:42;;;;;;;;;;;;;;;18.13;100.00;99812.38;5035318;28;20012;-94
2023/08/12 09:50:07;;;;;;;;;;;;;;;12.67;100.00;99848.66;5034114;28;20044;-93
2023/08/12 09:52:32;;;;;;;;;;;;;;;11.71;100.00;99848.84;5016982;28;19921;-92
2023/08/12 09:54:59;;;;;;;;;;;;;;;11.30;100.00;99835.72;5017666;28;19924;-91
2023/08/12 09:57:25;;;;;;;;;;;;;;;10.98;100.00;99830.91;5017307;28;19921;-93
2023/08/12 09:59:53;;;;;;;;;;;;;;;10.92;100.00;99801.16;5019606;28;19928;-93
2023/08/12 10:02:22;;;;;;;;;;;;;;;10.89;100.00;99805.63;5027724;28;20402;-93
2023/08/12 10:04:50;;;;;;;;;;;;;;;11.18;100.00;99815.91;5036407;28;19921;-93
2023/08/12 10:07:17;;;;;;;;;;;;;;;10.96;100.00;99806.25;5016758;28;19928;-89
2023/08/12 10:09:42;;;;;;;;;;;;;;;11.33;100.00;99815.22;5038421;28;20003;-91
2023/08/12 10:12:08;;;;;;;;;;;;;;;10.98;100.00;99815.00;5017880;28;19956;-91
2023/08/12 10:14:34;;;;;;;;;;;;;;;10.84;100.00;99806.78;5034987;28;19928;-95
2023/08/12 10:16:59;;;;;;;;;;;;;;;10.75;100.00;99796.56;5018414;28;19917;-93
2023/08/12 10:19:25;;;;;;;;;;;;;;;10.69;100.00;99782.69;5019187;28;19917;-91
2023/08/12 10:21:54;;;;;;;;;;;;;;;10.62;100.00;99773.25;5019474;28;19917;-94
2023/08/12 10:24:19;;;;;;;;;;;;;;;10.59;100.00;99762.78;5034914;28;19921;-90
2023/08/12 10:26:45;;;;;;;;;;;;;;;10.62;100.00;99744.09;5034649;28;19995;-88
2023/08/12 10:29:11;;;;;;;;;;;;;;;10.58;100.00;99734.59;5034441;28;20003;-88
2023/08/12 10:31:38;;;;;;;;;;;;;;;10.61;100.00;99725.63;5034120;28;20047;-91
2023/08/12 10:36:55;;;;;;;;;;;;;;;10.63;100.00;99714.03;5109696;23;20300;-90
2023/08/12 10:39:22;;;;;;;;;;;;;;;10.55;100.00;99732.06;5013762;28;19925;-90
2023/08/12 10:41:52;;;;;;;;;;;;;;;10.59;100.00;99738.94;4997493;28;19921;-90
2023/08/12 10:44:19;;;;;;;;;;;;;;;10.54;100.00;99738.28;5015308;28;19921;-91
2023/08/12 10:46:50;;;;;;;;;;;;;;;10.53;100.00;99747.19;4996571;28;19921;-92
2023/08/12 10:49:15;;;;;;;;;;;;;;;10.58;100.00;99758.44;4996574;28;19928;-87
2023/08/12 10:52:06;;;;;;;;;;;;;;;10.52;100.00;99753.41;5029694;23;19918;-93
2023/08/12 10:54:31;;;;;;;;;;;;;;;10.53;100.00;99749.84;4996869;28;19925;-93
2023/08/12 10:57:02;;;;;;;;;;;;;;;10.54;100.00;99746.22;4997430;28;20364;-92
2023/08/12 10:59:46;;;;;;;;;;;;;;;10.54;100.00;99746.22;5014061;28;19918;-92
2023/08/12 11:02:27;;;;;;;;;;;;;;;10.62;100.00;99759.16;4996581;28;20372;-90
2023/08/12 11:04:53;;;;;;;;;;;;;;;10.56;100.00;99764.72;4996399;28;19917;-91
2023/08/12 11:07:20;;;;;;;;;;;;;;;10.58;100.00;99769.03;4995836;28;20745;-92
2023/08/12 11:09:45;;;;;;;;;;;;;;;10.59;100.00;99772.53;5013250;28;19952;-90
2023/08/12 11:12:14;;;;;;;;;;;;;;;10.61;100.00;99781.25;5014459;28;20348;-91
2023/08/12 11:14:49;;;;;;;;;;;;;;;10.52;100.00;99780.75;4997393;28;19917;-90
2023/08/12 11:17:15;;;;;;;;;;;;;;;10.57;100.00;99783.19;4986707;28;19922;-90
2023/08/12 11:20:04;;;;;;;;;;;;;;;10.59;100.00;99789.28;4997082;28;19921;-92
2023/08/12 11:22:30;;;;;;;;;;;;;;;10.58;100.00;99798.19;5029233;23;20307;-86
2023/08/12 11:24:58;;;;;;;;;;;;;;;10.59;100.00;99796.38;5011864;28;19925;-95
2023/08/12 11:27:24;;;;;;;;;;;;;;;10.56;100.00;99786.75;5012216;28;19917;-91
2023/08/12 11:29:50;;;;;;;;;;;;;;;10.54;100.00;99783.31;5013685;28;20395;-90
2023/08/12 11:32:15;;;;;;;;;;;;;;;10.58;100.00;99779.63;5013228;28;20328;-90
2023/08/12 11:34:41;;;;;;;;;;;;;;;10.55;100.00;99774.47;5011787;28;20405;-91
2023/08/12 11:37:06;;;;;;;;;;;;;;;10.53;100.00;99768.38;5009728;28;20071;-90
2023/08/12 11:39:32;;;;;;;;;;;;;;;10.49;100.00;99759.69;5011765;28;19921;-91
2023/08/12 11:41:57;;;;;;;;;;;;;;;10.47;100.00;99747.44;5011539;28;20423;-90
2023/08/12 11:44:23;;;;;;;;;;;;;;;10.53;100.00;99750.69;5012810;28;20020;-90
2023/08/12 11:46:49;;;;;;;;;;;;;;;10.47;100.00;99744.78;5011523;28;20335;-89
2023/08/12 11:49:14;;;;;;;;;;;;;;;10.57;100.00;99735.50;5011542;28;19957;-90
2023/08/12 11:51:40;;;;;;;;;;;;;;;10.47;100.00;99735.06;5012749;28;19980;-90
2023/08/12 11:54:06;;;;;;;;;;;;;;;10.45;100.00;99736.03;5010322;28;19957;-90
2023/08/12 11:56:31;;;;;;;;;;;;;;;10.55;100.00;99729.41;5011461;28;19945;-89
2023/08/12 11:58:57;;;;;;;;;;;;;;;10.46;100.00;99729.81;5012621;28;20365;-90
2023/08/12 12:01:23;;;;;;;;;;;;;;;10.53;100.00;99728.63;5011228;28;19929;-91
2023/08/12 12:03:52;;;;;;;;;;;;;;;10.51;100.00;99722.53;5049093;23;19925;-90
2023/08/12 12:06:17;;;;;;;;;;;;;;;10.48;100.00;99725.31;5015509;28;19918;-90
2023/08/12 12:08:46;;;;;;;;;;;;;;;10.45;100.00;99730.72;5014123;28;19999;-93
2023/08/12 12:11:13;;;;;;;;;;;;;;;10.47;100.00;99735.06;5034074;28;19936;-89
2023/08/12 12:13:39;;;;;;;;;;;;;;;10.49;100.00;99741.13;5034670;28;19920;-94
2023/08/12 12:16:09;;;;;;;;;;;;;;;10.50;100.00;99749.97;5017041;28;19925;-90
2023/08/12 12:18:35;;;;;;;;;;;;;;;10.49;100.00;99751.72;5017889;28;19925;-94
2023/08/12 12:21:22;;;;;;;;;;;;;;;10.48;100.00;99751.78;5018713;28;19923;-94
2023/08/12 12:23:47;;;;;;;;;;;;;;;10.47;100.00;99756.25;5032888;28;19917;-96
2023/08/12 12:26:13;;;;;;;;;;;;;;;10.42;100.00;99755.59;5033336;28;19921;-90
2023/08/12 12:28:38;;;;;;;;;;;;;;;10.47;100.00;99758.03;5015380;28;20422;-91
2023/08/12 12:31:03;;;;;;;;;;;;;;;10.45;100.00;99763.41;5015474;28;20368;-90
2023/08/12 12:33:29;;;;;;;;;;;;;;;10.50;100.00;99771.16;5033082;28;19917;-91
2023/08/12 12:35:57;;;;;;;;;;;;;;;10.53;100.00;99760.44;5014612;28;19917;-90
2023/08/12 12:38:43;;;;;;;;;;;;;;;10.50;100.00;99765.84;5032169;28;20563;-94
2023/08/12 12:41:08;;;;;;;;;;;;;;;10.47;100.00;99771.28;5014466;28;19924;-90
2023/08/12 12:43:34;;;;;;;;;;;;;;;10.51;100.00;99780.81;5031873;28;20004;-93
2023/08/12 12:45:59;;;;;;;;;;;;;;;10.53;100.00;99781.63;5015740;28;19917;-91
2023/08/12 12:48:24;;;;;;;;;;;;;;;10.47;100.00;99780.09;5016120;28;20331;-90
2023/08/12 12:50:50;;;;;;;;;;;;;;;10.49;100.00;99788.81;5032752;28;19917;-91
2023/08/12 12:53:15;;;;;;;;;;;;;;;10.51;100.00;99783.44;5014354;28;19924;-93
2023/08/12 12:55:57;;;;;;;;;;;;;;;10.46;100.00;99788.09;5015388;28;20431;-91
2023/08/12 12:58:23;;;;;;;;;;;;;;;10.43;100.00;99782.94;5032411;28;19964;-94
2023/08/12 13:00:48;;;;;;;;;;;;;;;10.43;100.00;99786.41;5015953;28;20388;-94
2023/08/12 13:03:14;;;;;;;;;;;;;;;10.42;100.00;99773.25;5015381;28;20007;-92
2023/08/12 13:05:39;;;;;;;;;;;;;;;10.43;100.00;99774.97;5015238;28;19923;-95
2023/08/12 13:08:04;;;;;;;;;;;;;;;10.42;100.00;99781.19;5014403;28;19956;-95
2023/08/12 13:10:30;;;;;;;;;;;;;;;10.36;100.00;99777.88;5008208;28;19921;-94
2023/08/12 13:12:55;;;;;;;;;;;;;;;10.47;100.00;99771.28;5015232;28;19988;-94
2023/08/12 13:15:20;;;;;;;;;;;;;;;10.44;100.00;99774.06;5016194;28;19917;-93
2023/08/12 13:17:46;;;;;;;;;;;;;;;10.37;100.00;99773.47;5014752;28;19917;-91
2023/08/12 13:20:11;;;;;;;;;;;;;;;10.32;100.00;99778.03;5014501;28;19923;-94
2023/08/12 13:22:36;;;;;;;;;;;;;;;10.39;100.00;99783.97;5015278;28;19929;-91
2023/08/12 13:25:02;;;;;;;;;;;;;;;10.38;100.00;99793.72;5035717;28;20434;-93
2023/08/12 13:27:27;;;;;;;;;;;;;;;10.32;100.00;99800.16;5036052;28;19924;-91
2023/08/12 13:29:53;;;;;;;;;;;;;;;10.30;100.00;99801.94;5017520;28;19957;-95
2023/08/12 13:32:18;;;;;;;;;;;;;;;10.31;100.00;99805.47;5017520;28;19920;-90
2023/08/12 13:34:47;;;;;;;;;;;;;;;10.41;100.00;99816.56;5017571;28;19917;-91
2023/08/12 13:37:12;;;;;;;;;;;;;;;10.39;100.00;99803.38;5034522;28;19970;-90
2023/08/12 13:39:38;;;;;;;;;;;;;;;10.32;100.00;99808.09;5017146;28;19921;-90
2023/08/12 13:42:03;;;;;;;;;;;;;;;10.35;100.00;99815.03;5017332;28;19940;-92
2023/08/12 13:44:28;;;;;;;;;;;;;;;10.36;100.00;99808.81;5035177;28;19924;-92
2023/08/12 13:46:54;;;;;;;;;;;;;;;10.34;100.00;99808.88;5017235;28;20364;-93
2023/08/12 13:49:19;;;;;;;;;;;;;;;10.39;100.00;99800.75;5017284;28;20062;-94
2023/08/12 13:51:44;;;;;;;;;;;;;;;10.30;100.00;99799.28;5016189;28;19928;-90
2023/08/12 13:54:10;;;;;;;;;;;;;;;10.35;100.00;99812.38;5032615;28;19939;-87
2023/08/12 13:56:35;;;;;;;;;;;;;;;10.36;100.00;99799.06;5034625;28;19980;-91
2023/08/12 13:59:00;;;;;;;;;;;;;;;10.44;100.00;99784.66;5016961;28;19923;-90
2023/08/12 14:01:26;;;;;;;;;;;;;;;10.43;100.00;99796.16;5034443;28;20372;-92
2023/08/12 14:03:51;;;;;;;;;;;;;;;10.33;100.00;99801.84;5016842;28;19936;-93
2023/08/12 14:06:16;;;;;;;;;;;;;;;10.34;100.00;99798.28;5016775;28;20327;-93
2023/08/12 14:08:41;;;;;;;;;;;;;;;10.32;100.00;99791.28;5033270;28;20212;-93
2023/08/12 14:11:07;;;;;;;;;;;;;;;10.30;100.00;99801.09;5016797;28;19921;-90
2023/08/12 14:13:32;;;;;;;;;;;;;;;10.32;100.00;99792.19;5017153;28;19925;-94
2023/08/12 14:15:57;;;;;;;;;;;;;;;10.34;100.00;99787.69;5034348;28;19917;-94
2023/08/12 14:18:22;;;;;;;;;;;;;;;10.29;100.00;99791.41;5034553;28;19921;-94
2023/08/12 14:20:48;;;;;;;;;;;;;;;10.28;100.00;99785.25;5034328;28;20387;-90
2023/08/12 14:23:13;;;;;;;;;;;;;;;10.34;100.00;99792.13;5032939;28;19935;-95
2023/08/12 14:25:38;;;;;;;;;;;;;;;10.34;100.00;99781.53;5034187;28;19963;-91
2023/08/12 14:28:04;;;;;;;;;;;;;;;10.33;100.00;99785.94;5016280;28;20410;-91
2023/08/12 14:30:29;;;;;;;;;;;;;;;10.38;100.00;99772.53;5016017;28;19917;-92
2023/08/12 14:33:03;;;;;;;;;;;;;;;10.35;100.00;99781.47;5015383;28;20384;-94
2023/08/12 14:35:29;;;;;;;;;;;;;;;10.45;100.00;99773.13;5034119;28;20276;-91
2023/08/12 14:37:54;;;;;;;;;;;;;;;10.40;100.00;99775.09;5032578;28;19921;-91
2023/08/12 14:40:20;;;;;;;;;;;;;;;10.40;100.00;99775.09;5032805;28;20349;-91
2023/08/12 14:42:45;;;;;;;;;;;;;;;10.43;100.00;99774.97;5015849;28;19951;-91
2023/08/12 14:45:10;;;;;;;;;;;;;;;10.42;100.00;99763.53;5033447;28;20004;-92
2023/08/12 14:47:35;;;;;;;;;;;;;;;10.46;100.00;99770.41;5033553;28;19923;-89
2023/08/12 14:50:01;;;;;;;;;;;;;;;10.42;100.00;99770.59;5033393;28;19917;-92
2023/08/12 14:52:26;;;;;;;;;;;;;;;10.45;100.00;99759.88;5014289;28;19943;-90
2023/08/12 14:54:52;;;;;;;;;;;;;;;10.44;100.00;99752.88;5015654;28;19921;-86
2023/08/12 14:57:17;;;;;;;;;;;;;;;10.48;100.00;99749.16;5033248;28;19924;-89
2023/08/12 14:59:42;;;;;;;;;;;;;;;10.48;100.00;99750.03;5033332;28;20296;-88
2023/08/12 15:02:08;;;;;;;;;;;;;;;10.49;100.00;99742.94;5015489;28;19917;-93
2023/08/12 15:04:33;;;;;;;;;;;;;;;10.51;100.00;99744.59;5015758;28;19987;-93
2023/08/12 15:06:59;;;;;;;;;;;;;;;10.49;100.00;99743.78;5033198;28;19917;-90
2023/08/12 15:09:24;;;;;;;;;;;;;;;10.42;100.00;99744.09;5015506;28;19952;-91
2023/08/12 15:11:50;;;;;;;;;;;;;;;10.44;100.00;99745.78;5016095;28;19979;-93
2023/08/12 15:14:15;;;;;;;;;;;;;;;10.44;100.00;99742.28;5033881;28;19927;-92
2023/08/12 15:16:40;;;;;;;;;;;;;;;10.49;100.00;99738.47;5015952;28;19917;-94
2023/08/12 15:19:06;;;;;;;;;;;;;;;10.51;100.00;99735.78;5015418;28;19975;-86
2023/08/12 15:21:39;;;;;;;;;;;;;;;10.49;100.00;99732.34;5033002;28;19917;-90
2023/08/12 15:24:07;;;;;;;;;;;;;;;10.50;100.00;99734.06;5013642;28;19921;-92
2023/08/12 15:26:32;;;;;;;;;;;;;;;10.42;100.00;99738.81;5015523;28;19967;-94
2023/08/12 15:28:57;;;;;;;;;;;;;;;10.43;100.00;99737.88;5015534;28;19964;-89
2023/08/12 15:31:23;;;;;;;;;;;;;;;10.45;100.00;99742.22;5015557;28;19914;-89
2023/08/12 15:33:48;;;;;;;;;;;;;;;10.47;100.00;99742.16;5032747;28;20401;-88
2023/08/12 15:36:13;;;;;;;;;;;;;;;10.40;100.00;99738.03;5033482;28;19924;-90
2023/08/12 15:38:39;;;;;;;;;;;;;;;10.46;100.00;99743.06;5032976;28;19924;-92
2023/08/12 15:41:11;;;;;;;;;;;;;;;10.43;100.00;99751.13;5033031;28;19917;-93
2023/08/12 15:43:37;;;;;;;;;;;;;;;10.41;100.00;99750.34;5032611;28;19921;-93
2023/08/12 15:46:03;;;;;;;;;;;;;;;10.42;100.00;99747.63;5032767;28;19928;-93
2023/08/12 15:48:28;;;;;;;;;;;;;;;10.51;100.00;99746.38;5032769;28;19931;-90
2023/08/12 15:50:53;;;;;;;;;;;;;;;10.42;100.00;99737.03;5015086;28;20011;-92
2023/08/12 15:53:50;;;;;;;;;;;;;;;10.47;100.00;99744.78;5041366;23;20337;-93
2023/08/12 15:56:15;;;;;;;;;;;;;;;10.44;100.00;99751.06;5013941;28;19922;-91
2023/08/12 15:58:40;;;;;;;;;;;;;;;10.48;100.00;99746.50;5014912;28;19932;-90
2023/08/12 16:01:11;;;;;;;;;;;;;;;10.48;100.00;99747.38;5013864;28;19923;-92
2023/08/12 16:03:42;;;;;;;;;;;;;;;10.52;100.00;99748.09;5015048;28;19924;-92
2023/08/12 16:06:29;;;;;;;;;;;;;;;10.49;100.00;99753.53;5016476;28;19913;-93
2023/08/12 16:08:54;;;;;;;;;;;;;;;10.45;100.00;99743.97;5012745;28;19928;-90
2023/08/12 16:11:19;;;;;;;;;;;;;;;10.51;100.00;99749.00;5014776;28;19917;-91
2023/08/12 16:13:45;;;;;;;;;;;;;;;10.50;100.00;99748.16;5014497;28;19927;-90
2023/08/12 16:16:10;;;;;;;;;;;;;;;10.52;100.00;99748.09;5014582;28;19914;-90
2023/08/12 16:18:35;;;;;;;;;;;;;;;10.46;100.00;99743.06;5014369;28;19918;-90
2023/08/12 16:21:07;;;;;;;;;;;;;;;10.54;100.00;99735.63;5014043;28;19917;-92
2023/08/12 16:23:32;;;;;;;;;;;;;;;10.49;100.00;99732.34;5012839;28;20063;-90
2023/08/12 16:25:58;;;;;;;;;;;;;;;10.53;100.00;99739.22;5014246;28;20429;-90
2023/08/12 16:28:23;;;;;;;;;;;;;;;10.52;100.00;99735.69;5014058;28;19922;-89
2023/08/12 16:31:27;;;;;;;;;;;;;;;10.51;100.00;99741.06;5014180;28;19940;-92
2023/08/12 16:33:53;;;;;;;;;;;;;;;10.54;100.00;99741.78;4922593;29;19922;-90
2023/08/12 16:36:18;;;;;;;;;;;;;;;10.56;100.00;99728.47;4907475;29;19925;-90
2023/08/12 16:38:43;;;;;;;;;;;;;;;10.60;100.00;99732.72;4970652;28;20140;-89
2023/08/12 16:41:08;;;;;;;;;;;;;;;10.63;100.00;99734.38;5013595;28;19917;-88
2023/08/12 16:43:34;;;;;;;;;;;;;;;10.59;100.00;99744.25;5014525;28;19928;-91
2023/08/12 16:46:00;;;;;;;;;;;;;;;10.58;100.00;99739.00;5032133;28;20328;-94
2023/08/12 16:48:25;;;;;;;;;;;;;;;10.55;100.00;99747.97;5014097;28;19971;-91
2023/08/12 16:53:26;;;;;;;;;;;;;;;10.62;100.00;99745.91;5057991;23;19929;-91
2023/08/12 16:55:51;;;;;;;;;;;;;;;10.61;100.00;99753.00;5014823;28;20323;-91
2023/08/12 17:01:16;;;;;;;;;;;;;;;10.64;100.00;99747.56;5035305;28;19917;-93
2023/08/12 17:03:41;;;;;;;;;;;;;;;13.52;100.00;99745.78;5035608;28;20509;-91
2023/08/12 17:06:06;;;;;;;;;;;;;;;11.11;100.00;99750.81;5035347;28;19971;-91
2023/08/12 17:11:29;;;;;;;;;;;;;;;10.68;100.00;99748.28;5144652;23;19940;-93
2023/08/12 17:13:54;;;;;;;;;;;;;;;10.65;100.00;99746.63;4998529;28;20008;-90
2023/08/12 17:16:20;;;;;;;;;;;;;;;10.57;100.00;99748.75;5016573;28;19921;-95
2023/08/12 17:18:46;;;;;;;;;;;;;;;10.56;100.00;99748.81;5015913;28;20328;-93
2023/08/12 17:21:11;;;;;;;;;;;;;;;10.49;100.00;99738.47;4998601;28;19917;-95
2023/08/12 17:23:36;;;;;;;;;;;;;;;10.48;100.00;99741.19;4997601;28;19928;-92
2023/08/12 17:29:00;;;;;;;;;;;;;;;10.44;100.00;99736.97;5003364;28;19921;-95
2023/08/12 17:31:25;;;;;;;;;;;;;;;10.42;100.00;99731.75;4999427;28;19922;-96
2023/08/12 17:33:51;;;;;;;;;;;;;;;10.39;100.00;99747.75;5000344;28;19921;-93
2023/08/12 17:47:05;;;;;;;;;;;;;;;10.39;100.00;99753.06;5036118;28;19948;-94
2023/08/12 17:49:31;;;;;;;;;;;;;;;10.40;100.00;99759.22;5020057;28;19925;-94
2023/08/12 17:52:08;;;;;;;;;;;;;;;10.41;100.00;99755.66;5019882;28;20273;-96
2023/08/12 17:54:33;;;;;;;;;;;;;;;10.39;100.00;99753.06;5037599;28;19921;-95
2023/08/12 17:56:59;;;;;;;;;;;;;;;10.32;100.00;99756.84;5018645;28;20383;-93
2023/08/12 17:59:26;;;;;;;;;;;;;;;10.31;100.00;99750.69;5143543;23;19925;-92
2023/08/12 18:01:52;;;;;;;;;;;;;;;10.35;100.00;99756.75;5018627;28;20288;-93
2023/08/12 18:04:17;;;;;;;;;;;;;;;10.35;100.00;99752.34;5019518;28;19921;-94
2023/08/12 18:06:45;;;;;;;;;;;;;;;10.34;100.00;99761.19;5018664;28;19913;-94
2023/08/12 18:09:10;;;;;;;;;;;;;;;10.36;100.00;99769.09;5017802;28;20007;-94
2023/08/12 18:12:07;;;;;;;;;;;;;;;10.34;100.00;99758.56;5018059;28;19971;-95
2023/08/12 18:14:34;;;;;;;;;;;;;;;10.35;100.00;99765.59;5036720;28;19921;-94
2023/08/12 18:17:00;;;;;;;;;;;;;;;10.38;100.00;99772.53;5035301;28;19917;-92
2023/08/12 18:19:25;;;;;;;;;;;;;;;10.35;100.00;99772.66;5016494;28;19921;-93
2023/08/12 18:21:50;;;;;;;;;;;;;;;10.41;100.00;99776.84;5035757;28;19943;-91
2023/08/12 18:24:16;;;;;;;;;;;;;;;10.31;100.00;99773.69;5033620;28;19921;-93
2023/08/12 18:26:41;;;;;;;;;;;;;;;10.30;100.00;99780.75;5017494;28;19968;-93
2023/08/12 18:29:07;;;;;;;;;;;;;;;10.35;100.00;99788.53;5016393;28;20059;-92
2023/08/12 18:31:32;;;;;;;;;;;;;;;10.31;100.00;99789.56;5033282;28;20376;-92
2023/08/12 18:33:57;;;;;;;;;;;;;;;10.35;100.00;99788.53;5015882;28;19957;-91
2023/08/12 18:36:25;;;;;;;;;;;;;;;10.36;100.00;99793.78;5032990;28;19921;-92
2023/08/12 18:38:51;;;;;;;;;;;;;;;10.36;100.00;99790.28;5013044;28;19975;-90
2023/08/12 18:41:16;;;;;;;;;;;;;;;10.33;100.00;99796.53;5016324;28;19971;-90
2023/08/12 18:43:41;;;;;;;;;;;;;;;10.38;100.00;99791.06;5014170;28;19925;-91
2023/08/12 18:46:06;;;;;;;;;;;;;;;10.34;100.00;99792.97;5016192;28;19932;-92